sensor_id;sensor_type;location;lat;lon;timestamp;P1;durP1;ratioP1;P2;durP2;ratioP2
28459;SDS011;32528;45.712;9.192;2022-07-23T00:00:14;12.73;;;6.93;;
28459;SDS011;32528;45.712;9.192;2022-07-23T00:02:15;15.98;;;6.78;;
28459;SDS011;32528;45.712;9.192;2022-07-23T00:04:17;13.13;;;6.82;;
28459;SDS011;32528;45.712;9.192;2022-07-23T00:06:17;11.60;;;6.00;;
28459;SDS011;32528;45.712;9.192;2022-07-23T00:08:18;10.55;;;6.82;;
28459;SDS011;32528;45.712;9.192;2022-07-23T00:10:19;13.45;;;7.25;;
28459;SDS011;32528;45.712;9.192;2022-07-23T00:12:20;8.98;;;5.95;;
28459;SDS011;32528;45.712;9.192;2022-07-23T00:14:21;12.85;;;6.13;;
28459;SDS011;32528;45.712;9.192;2022-07-23T00:16:22;11.45;;;6.82;;
28459;SDS011;32528;45.712;9.192;2022-07-23T00:18:23;14.93;;;6.13;;
28459;SDS011;32528;45.712;9.192;2022-07-23T00:20:24;11.82;;;5.57;;
28459;SDS011;32528;45.712;9.192;2022-07-23T00:22:25;8.88;;;6.30;;
28459;SDS011;32528;45.712;9.192;2022-07-23T00:24:26;15.18;;;6.82;;
28459;SDS011;32528;45.712;9.192;2022-07-23T00:26:27;19.77;;;6.28;;
28459;SDS011;32528;45.712;9.192;2022-07-23T00:28:27;12.93;;;6.07;;
28459;SDS011;32528;45.712;9.192;2022-07-23T00:30:29;9.80;;;7.00;;
28459;SDS011;32528;45.712;9.192;2022-07-23T00:32:32;11.98;;;7.20;;
28459;SDS011;32528;45.712;9.192;2022-07-23T00:34:33;13.10;;;6.68;;
28459;SDS011;32528;45.712;9.192;2022-07-23T00:36:34;10.38;;;6.65;;
28459;SDS011;32528;45.712;9.192;2022-07-23T00:38:35;13.93;;;7.30;;
28459;SDS011;32528;45.712;9.192;2022-07-23T00:40:37;12.25;;;6.22;;
28459;SDS011;32528;45.712;9.192;2022-07-23T00:42:38;12.30;;;7.15;;
28459;SDS011;32528;45.712;9.192;2022-07-23T00:44:39;16.02;;;7.15;;
28459;SDS011;32528;45.712;9.192;2022-07-23T00:46:44;14.02;;;7.22;;
28459;SDS011;32528;45.712;9.192;2022-07-23T00:48:53;14.30;;;7.47;;
28459;SDS011;32528;45.712;9.192;2022-07-23T00:50:54;10.77;;;7.60;;
28459;SDS011;32528;45.712;9.192;2022-07-23T00:52:55;8.50;;;5.82;;
28459;SDS011;32528;45.712;9.192;2022-07-23T00:54:56;17.35;;;6.57;;
28459;SDS011;32528;45.712;9.192;2022-07-23T00:56:57;17.77;;;6.90;;
28459;SDS011;32528;45.712;9.192;2022-07-23T00:58:59;10.57;;;6.00;;
28459;SDS011;32528;45.712;9.192;2022-07-23T01:01:00;12.63;;;6.75;;
28459;SDS011;32528;45.712;9.192;2022-07-23T01:03:01;11.07;;;6.78;;
28459;SDS011;32528;45.712;9.192;2022-07-23T01:05:01;12.00;;;6.40;;
28459;SDS011;32528;45.712;9.192;2022-07-23T01:07:03;14.20;;;6.40;;
28459;SDS011;32528;45.712;9.192;2022-07-23T01:09:04;12.05;;;7.43;;
28459;SDS011;32528;45.712;9.192;2022-07-23T01:11:06;15.48;;;7.15;;
28459;SDS011;32528;45.712;9.192;2022-07-23T01:13:08;10.30;;;7.20;;
28459;SDS011;32528;45.712;9.192;2022-07-23T01:15:10;14.55;;;7.32;;
28459;SDS011;32528;45.712;9.192;2022-07-23T01:17:12;10.68;;;6.18;;
28459;SDS011;32528;45.712;9.192;2022-07-23T01:19:13;20.95;;;6.88;;
28459;SDS011;32528;45.712;9.192;2022-07-23T01:21:14;13.40;;;7.25;;
28459;SDS011;32528;45.712;9.192;2022-07-23T01:23:19;13.60;;;7.07;;
28459;SDS011;32528;45.712;9.192;2022-07-23T01:25:26;16.02;;;6.80;;
28459;SDS011;32528;45.712;9.192;2022-07-23T01:27:33;15.20;;;7.00;;
28459;SDS011;32528;45.712;9.192;2022-07-23T01:29:37;13.23;;;6.65;;
28459;SDS011;32528;45.712;9.192;2022-07-23T01:31:43;12.73;;;6.05;;
28459;SDS011;32528;45.712;9.192;2022-07-23T01:33:44;16.00;;;7.20;;
28459;SDS011;32528;45.712;9.192;2022-07-23T01:35:45;16.42;;;6.95;;
28459;SDS011;32528;45.712;9.192;2022-07-23T01:37:51;11.85;;;6.53;;
28459;SDS011;32528;45.712;9.192;2022-07-23T01:39:54;10.07;;;7.13;;
28459;SDS011;32528;45.712;9.192;2022-07-23T01:41:54;12.18;;;7.20;;
28459;SDS011;32528;45.712;9.192;2022-07-23T01:43:56;9.50;;;6.32;;
28459;SDS011;32528;45.712;9.192;2022-07-23T01:46:02;17.02;;;7.10;;
28459;SDS011;32528;45.712;9.192;2022-07-23T01:48:09;14.10;;;6.82;;
28459;SDS011;32528;45.712;9.192;2022-07-23T01:50:10;11.98;;;5.97;;
28459;SDS011;32528;45.712;9.192;2022-07-23T01:52:37;12.27;;;6.20;;
28459;SDS011;32528;45.712;9.192;2022-07-23T01:54:38;11.65;;;6.70;;
28459;SDS011;32528;45.712;9.192;2022-07-23T01:56:40;16.23;;;6.00;;
28459;SDS011;32528;45.712;9.192;2022-07-23T01:58:41;14.43;;;5.88;;
28459;SDS011;32528;45.712;9.192;2022-07-23T02:00:42;12.57;;;6.05;;
28459;SDS011;32528;45.712;9.192;2022-07-23T02:02:43;10.00;;;4.72;;
28459;SDS011;32528;45.712;9.192;2022-07-23T02:04:44;7.22;;;4.88;;
28459;SDS011;32528;45.712;9.192;2022-07-23T02:06:44;14.43;;;5.13;;
28459;SDS011;32528;45.712;9.192;2022-07-23T02:08:45;17.67;;;4.60;;
28459;SDS011;32528;45.712;9.192;2022-07-23T02:10:46;11.57;;;3.63;;
28459;SDS011;32528;45.712;9.192;2022-07-23T02:12:47;15.02;;;4.10;;
28459;SDS011;32528;45.712;9.192;2022-07-23T02:14:48;13.02;;;3.85;;
28459;SDS011;32528;45.712;9.192;2022-07-23T02:16:49;24.10;;;4.32;;
28459;SDS011;32528;45.712;9.192;2022-07-23T02:18:49;12.50;;;3.70;;
28459;SDS011;32528;45.712;9.192;2022-07-23T02:20:50;16.27;;;4.70;;
28459;SDS011;32528;45.712;9.192;2022-07-23T02:22:51;9.55;;;3.83;;
28459;SDS011;32528;45.712;9.192;2022-07-23T02:24:52;6.65;;;3.38;;
28459;SDS011;32528;45.712;9.192;2022-07-23T02:26:53;9.82;;;3.83;;
28459;SDS011;32528;45.712;9.192;2022-07-23T02:28:54;7.97;;;2.90;;
28459;SDS011;32528;45.712;9.192;2022-07-23T02:30:55;11.90;;;3.25;;
28459;SDS011;32528;45.712;9.192;2022-07-23T02:32:56;7.38;;;3.50;;
28459;SDS011;32528;45.712;9.192;2022-07-23T02:34:58;7.50;;;3.35;;
28459;SDS011;32528;45.712;9.192;2022-07-23T02:36:59;11.43;;;3.65;;
28459;SDS011;32528;45.712;9.192;2022-07-23T02:39:03;16.30;;;4.00;;
28459;SDS011;32528;45.712;9.192;2022-07-23T02:41:05;8.27;;;3.17;;
28459;SDS011;32528;45.712;9.192;2022-07-23T02:43:06;14.88;;;3.78;;
28459;SDS011;32528;45.712;9.192;2022-07-23T02:45:07;13.20;;;3.17;;
28459;SDS011;32528;45.712;9.192;2022-07-23T02:47:08;14.57;;;2.50;;
28459;SDS011;32528;45.712;9.192;2022-07-23T02:49:09;7.15;;;2.60;;
28459;SDS011;32528;45.712;9.192;2022-07-23T02:51:10;9.93;;;3.10;;
28459;SDS011;32528;45.712;9.192;2022-07-23T02:53:16;23.63;;;3.20;;
28459;SDS011;32528;45.712;9.192;2022-07-23T02:55:17;17.90;;;3.05;;
28459;SDS011;32528;45.712;9.192;2022-07-23T02:57:17;11.77;;;2.55;;
28459;SDS011;32528;45.712;9.192;2022-07-23T02:59:18;7.47;;;3.28;;
28459;SDS011;32528;45.712;9.192;2022-07-23T03:01:21;10.98;;;3.00;;
28459;SDS011;32528;45.712;9.192;2022-07-23T03:03:22;7.13;;;2.78;;
28459;SDS011;32528;45.712;9.192;2022-07-23T03:05:22;9.65;;;2.92;;
28459;SDS011;32528;45.712;9.192;2022-07-23T03:07:23;7.43;;;2.67;;
28459;SDS011;32528;45.712;9.192;2022-07-23T03:09:25;5.13;;;2.45;;
28459;SDS011;32528;45.712;9.192;2022-07-23T03:11:26;5.18;;;2.45;;
28459;SDS011;32528;45.712;9.192;2022-07-23T03:13:27;13.85;;;2.58;;
28459;SDS011;32528;45.712;9.192;2022-07-23T03:15:29;4.55;;;2.03;;
28459;SDS011;32528;45.712;9.192;2022-07-23T03:17:31;5.22;;;2.50;;
28459;SDS011;32528;45.712;9.192;2022-07-23T03:19:32;4.70;;;1.95;;
28459;SDS011;32528;45.712;9.192;2022-07-23T03:21:33;4.45;;;2.13;;
28459;SDS011;32528;45.712;9.192;2022-07-23T03:23:34;5.07;;;2.22;;
28459;SDS011;32528;45.712;9.192;2022-07-23T03:25:35;2.97;;;1.52;;
28459;SDS011;32528;45.712;9.192;2022-07-23T03:27:37;3.63;;;1.90;;
28459;SDS011;32528;45.712;9.192;2022-07-23T03:29:38;3.75;;;2.08;;
28459;SDS011;32528;45.712;9.192;2022-07-23T03:31:39;6.80;;;2.95;;
28459;SDS011;32528;45.712;9.192;2022-07-23T03:33:41;7.80;;;2.03;;
28459;SDS011;32528;45.712;9.192;2022-07-23T03:35:43;5.10;;;2.00;;
28459;SDS011;32528;45.712;9.192;2022-07-23T03:37:52;6.65;;;2.17;;
28459;SDS011;32528;45.712;9.192;2022-07-23T03:39:53;6.68;;;2.28;;
28459;SDS011;32528;45.712;9.192;2022-07-23T03:41:54;7.13;;;2.13;;
28459;SDS011;32528;45.712;9.192;2022-07-23T03:43:56;6.10;;;2.10;;
28459;SDS011;32528;45.712;9.192;2022-07-23T03:45:56;4.07;;;1.88;;
28459;SDS011;32528;45.712;9.192;2022-07-23T03:47:57;7.53;;;2.50;;
28459;SDS011;32528;45.712;9.192;2022-07-23T03:49:58;8.93;;;1.83;;
28459;SDS011;32528;45.712;9.192;2022-07-23T03:51:59;6.68;;;2.25;;
28459;SDS011;32528;45.712;9.192;2022-07-23T03:54:00;6.60;;;2.53;;
28459;SDS011;32528;45.712;9.192;2022-07-23T03:56:01;5.65;;;2.08;;
28459;SDS011;32528;45.712;9.192;2022-07-23T03:58:02;3.13;;;1.65;;
28459;SDS011;32528;45.712;9.192;2022-07-23T04:00:06;5.00;;;2.40;;
28459;SDS011;32528;45.712;9.192;2022-07-23T04:02:13;6.13;;;2.00;;
28459;SDS011;32528;45.712;9.192;2022-07-23T04:04:14;10.25;;;2.10;;
28459;SDS011;32528;45.712;9.192;2022-07-23T04:06:15;7.20;;;1.63;;
28459;SDS011;32528;45.712;9.192;2022-07-23T04:08:16;8.30;;;2.08;;
28459;SDS011;32528;45.712;9.192;2022-07-23T04:10:23;12.73;;;2.42;;
28459;SDS011;32528;45.712;9.192;2022-07-23T04:12:24;3.25;;;1.60;;
28459;SDS011;32528;45.712;9.192;2022-07-23T04:14:26;5.18;;;1.95;;
28459;SDS011;32528;45.712;9.192;2022-07-23T04:16:28;6.20;;;1.70;;
28459;SDS011;32528;45.712;9.192;2022-07-23T04:18:28;6.20;;;2.58;;
28459;SDS011;32528;45.712;9.192;2022-07-23T04:20:40;7.05;;;3.20;;
28459;SDS011;32528;45.712;9.192;2022-07-23T04:22:40;5.50;;;1.50;;
28459;SDS011;32528;45.712;9.192;2022-07-23T04:24:41;6.90;;;2.17;;
28459;SDS011;32528;45.712;9.192;2022-07-23T04:26:43;4.68;;;2.15;;
28459;SDS011;32528;45.712;9.192;2022-07-23T04:28:45;14.02;;;2.20;;
28459;SDS011;32528;45.712;9.192;2022-07-23T04:30:46;7.55;;;1.90;;
28459;SDS011;32528;45.712;9.192;2022-07-23T04:32:48;4.60;;;2.05;;
28459;SDS011;32528;45.712;9.192;2022-07-23T04:34:55;6.07;;;1.90;;
28459;SDS011;32528;45.712;9.192;2022-07-23T04:36:56;9.95;;;2.38;;
28459;SDS011;32528;45.712;9.192;2022-07-23T04:38:57;5.63;;;2.42;;
28459;SDS011;32528;45.712;9.192;2022-07-23T04:40:59;3.55;;;1.67;;
28459;SDS011;32528;45.712;9.192;2022-07-23T04:43:00;4.45;;;2.05;;
28459;SDS011;32528;45.712;9.192;2022-07-23T04:45:03;7.50;;;2.17;;
28459;SDS011;32528;45.712;9.192;2022-07-23T04:47:04;5.70;;;1.90;;
28459;SDS011;32528;45.712;9.192;2022-07-23T04:49:07;6.40;;;1.73;;
28459;SDS011;32528;45.712;9.192;2022-07-23T04:51:07;3.97;;;1.67;;
28459;SDS011;32528;45.712;9.192;2022-07-23T04:53:09;3.67;;;2.03;;
28459;SDS011;32528;45.712;9.192;2022-07-23T04:55:09;3.85;;;2.28;;
28459;SDS011;32528;45.712;9.192;2022-07-23T04:57:10;3.90;;;1.92;;
28459;SDS011;32528;45.712;9.192;2022-07-23T04:59:11;7.50;;;2.40;;
28459;SDS011;32528;45.712;9.192;2022-07-23T05:01:13;5.90;;;1.88;;
28459;SDS011;32528;45.712;9.192;2022-07-23T05:03:14;6.53;;;1.75;;
28459;SDS011;32528;45.712;9.192;2022-07-23T05:05:15;3.50;;;1.98;;
28459;SDS011;32528;45.712;9.192;2022-07-23T05:07:17;11.20;;;2.35;;
28459;SDS011;32528;45.712;9.192;2022-07-23T05:09:18;3.35;;;2.05;;
28459;SDS011;32528;45.712;9.192;2022-07-23T05:11:18;4.07;;;1.50;;
28459;SDS011;32528;45.712;9.192;2022-07-23T05:13:20;5.60;;;2.35;;
28459;SDS011;32528;45.712;9.192;2022-07-23T05:15:24;10.43;;;2.05;;
28459;SDS011;32528;45.712;9.192;2022-07-23T05:17:25;6.88;;;1.85;;
28459;SDS011;32528;45.712;9.192;2022-07-23T05:19:26;4.72;;;1.80;;
28459;SDS011;32528;45.712;9.192;2022-07-23T05:21:27;5.90;;;2.45;;
28459;SDS011;32528;45.712;9.192;2022-07-23T05:23:28;5.68;;;1.50;;
28459;SDS011;32528;45.712;9.192;2022-07-23T05:25:29;3.50;;;1.48;;
28459;SDS011;32528;45.712;9.192;2022-07-23T05:27:30;4.53;;;1.75;;
28459;SDS011;32528;45.712;9.192;2022-07-23T05:29:31;2.97;;;1.77;;
28459;SDS011;32528;45.712;9.192;2022-07-23T05:31:32;20.85;;;2.20;;
28459;SDS011;32528;45.712;9.192;2022-07-23T05:33:33;6.63;;;2.22;;
28459;SDS011;32528;45.712;9.192;2022-07-23T05:35:34;3.90;;;1.60;;
28459;SDS011;32528;45.712;9.192;2022-07-23T05:37:53;5.97;;;1.58;;
28459;SDS011;32528;45.712;9.192;2022-07-23T05:39:54;4.03;;;1.80;;
28459;SDS011;32528;45.712;9.192;2022-07-23T05:41:55;4.40;;;1.48;;
28459;SDS011;32528;45.712;9.192;2022-07-23T05:43:57;3.13;;;1.50;;
28459;SDS011;32528;45.712;9.192;2022-07-23T05:45:58;6.43;;;2.08;;
28459;SDS011;32528;45.712;9.192;2022-07-23T05:47:59;8.57;;;2.58;;
28459;SDS011;32528;45.712;9.192;2022-07-23T05:50:06;9.05;;;1.92;;
28459;SDS011;32528;45.712;9.192;2022-07-23T05:52:20;9.45;;;2.67;;
28459;SDS011;32528;45.712;9.192;2022-07-23T05:54:44;4.75;;;2.40;;
28459;SDS011;32528;45.712;9.192;2022-07-23T05:56:45;5.47;;;2.13;;
28459;SDS011;32528;45.712;9.192;2022-07-23T05:58:46;6.20;;;2.88;;
28459;SDS011;32528;45.712;9.192;2022-07-23T06:00:49;5.95;;;1.75;;
28459;SDS011;32528;45.712;9.192;2022-07-23T06:02:50;4.78;;;1.70;;
28459;SDS011;32528;45.712;9.192;2022-07-23T06:04:51;10.88;;;1.92;;
28459;SDS011;32528;45.712;9.192;2022-07-23T06:07:00;5.50;;;2.53;;
28459;SDS011;32528;45.712;9.192;2022-07-23T06:09:01;8.63;;;1.38;;
28459;SDS011;32528;45.712;9.192;2022-07-23T06:11:03;5.93;;;2.38;;
28459;SDS011;32528;45.712;9.192;2022-07-23T06:13:04;3.13;;;1.55;;
28459;SDS011;32528;45.712;9.192;2022-07-23T06:15:05;12.10;;;1.58;;
28459;SDS011;32528;45.712;9.192;2022-07-23T06:17:08;7.10;;;2.30;;
28459;SDS011;32528;45.712;9.192;2022-07-23T06:19:10;5.85;;;2.10;;
28459;SDS011;32528;45.712;9.192;2022-07-23T06:21:11;9.20;;;1.95;;
28459;SDS011;32528;45.712;9.192;2022-07-23T06:23:12;5.80;;;1.77;;
28459;SDS011;32528;45.712;9.192;2022-07-23T06:25:13;8.18;;;2.15;;
28459;SDS011;32528;45.712;9.192;2022-07-23T06:27:13;3.78;;;1.70;;
28459;SDS011;32528;45.712;9.192;2022-07-23T06:29:14;5.90;;;1.63;;
28459;SDS011;32528;45.712;9.192;2022-07-23T06:31:16;3.58;;;1.40;;
28459;SDS011;32528;45.712;9.192;2022-07-23T06:33:17;4.97;;;1.83;;
28459;SDS011;32528;45.712;9.192;2022-07-23T06:35:18;5.32;;;1.80;;
28459;SDS011;32528;45.712;9.192;2022-07-23T06:37:20;4.38;;;1.80;;
28459;SDS011;32528;45.712;9.192;2022-07-23T06:39:21;7.60;;;1.95;;
28459;SDS011;32528;45.712;9.192;2022-07-23T06:41:23;5.03;;;2.15;;
28459;SDS011;32528;45.712;9.192;2022-07-23T06:43:24;14.30;;;2.05;;
28459;SDS011;32528;45.712;9.192;2022-07-23T06:45:28;12.18;;;2.28;;
28459;SDS011;32528;45.712;9.192;2022-07-23T06:47:29;4.38;;;1.98;;
28459;SDS011;32528;45.712;9.192;2022-07-23T06:49:30;8.32;;;2.47;;
28459;SDS011;32528;45.712;9.192;2022-07-23T06:51:31;8.52;;;2.20;;
28459;SDS011;32528;45.712;9.192;2022-07-23T06:53:34;4.78;;;1.77;;
28459;SDS011;32528;45.712;9.192;2022-07-23T06:55:35;10.55;;;2.15;;
28459;SDS011;32528;45.712;9.192;2022-07-23T06:57:38;8.90;;;2.22;;
28459;SDS011;32528;45.712;9.192;2022-07-23T06:59:40;4.50;;;1.65;;
28459;SDS011;32528;45.712;9.192;2022-07-23T07:01:41;4.15;;;2.13;;
28459;SDS011;32528;45.712;9.192;2022-07-23T07:03:42;8.05;;;2.40;;
28459;SDS011;32528;45.712;9.192;2022-07-23T07:05:42;4.72;;;2.20;;
28459;SDS011;32528;45.712;9.192;2022-07-23T07:07:43;6.78;;;1.67;;
28459;SDS011;32528;45.712;9.192;2022-07-23T07:09:44;6.00;;;2.15;;
28459;SDS011;32528;45.712;9.192;2022-07-23T07:11:45;7.70;;;2.50;;
28459;SDS011;32528;45.712;9.192;2022-07-23T07:13:45;7.63;;;2.33;;
28459;SDS011;32528;45.712;9.192;2022-07-23T07:15:46;14.38;;;2.50;;
28459;SDS011;32528;45.712;9.192;2022-07-23T07:17:47;3.85;;;1.70;;
28459;SDS011;32528;45.712;9.192;2022-07-23T07:19:48;6.22;;;1.98;;
28459;SDS011;32528;45.712;9.192;2022-07-23T07:21:49;11.70;;;1.88;;
28459;SDS011;32528;45.712;9.192;2022-07-23T07:23:49;4.47;;;2.10;;
28459;SDS011;32528;45.712;9.192;2022-07-23T07:25:50;5.15;;;2.08;;
28459;SDS011;32528;45.712;9.192;2022-07-23T07:27:51;9.45;;;2.25;;
28459;SDS011;32528;45.712;9.192;2022-07-23T07:29:52;8.35;;;2.15;;
28459;SDS011;32528;45.712;9.192;2022-07-23T07:31:52;4.75;;;1.85;;
28459;SDS011;32528;45.712;9.192;2022-07-23T07:33:53;9.55;;;3.25;;
28459;SDS011;32528;45.712;9.192;2022-07-23T07:35:56;4.05;;;1.90;;
28459;SDS011;32528;45.712;9.192;2022-07-23T07:37:59;5.97;;;2.30;;
28459;SDS011;32528;45.712;9.192;2022-07-23T07:40:00;6.50;;;2.65;;
28459;SDS011;32528;45.712;9.192;2022-07-23T07:42:01;5.13;;;2.42;;
28459;SDS011;32528;45.712;9.192;2022-07-23T07:44:02;4.15;;;1.67;;
28459;SDS011;32528;45.712;9.192;2022-07-23T07:46:03;10.93;;;2.35;;
28459;SDS011;32528;45.712;9.192;2022-07-23T07:48:04;5.13;;;2.25;;
28459;SDS011;32528;45.712;9.192;2022-07-23T07:50:05;5.13;;;2.05;;
28459;SDS011;32528;45.712;9.192;2022-07-23T07:52:08;6.45;;;2.17;;
28459;SDS011;32528;45.712;9.192;2022-07-23T07:54:09;4.40;;;1.90;;
28459;SDS011;32528;45.712;9.192;2022-07-23T07:56:10;6.18;;;1.55;;
28459;SDS011;32528;45.712;9.192;2022-07-23T07:58:10;4.28;;;1.83;;
28459;SDS011;32528;45.712;9.192;2022-07-23T08:00:11;4.80;;;1.83;;
28459;SDS011;32528;45.712;9.192;2022-07-23T08:02:12;7.10;;;2.72;;
28459;SDS011;32528;45.712;9.192;2022-07-23T08:04:13;2.88;;;1.60;;
28459;SDS011;32528;45.712;9.192;2022-07-23T08:06:14;6.38;;;1.95;;
28459;SDS011;32528;45.712;9.192;2022-07-23T08:08:15;4.45;;;1.70;;
28459;SDS011;32528;45.712;9.192;2022-07-23T08:10:16;6.82;;;2.20;;
28459;SDS011;32528;45.712;9.192;2022-07-23T08:12:17;13.10;;;2.33;;
28459;SDS011;32528;45.712;9.192;2022-07-23T08:14:18;8.43;;;2.03;;
28459;SDS011;32528;45.712;9.192;2022-07-23T08:16:19;9.73;;;2.60;;
28459;SDS011;32528;45.712;9.192;2022-07-23T08:18:20;4.80;;;2.15;;
28459;SDS011;32528;45.712;9.192;2022-07-23T08:20:21;9.27;;;2.70;;
28459;SDS011;32528;45.712;9.192;2022-07-23T08:22:23;6.47;;;3.03;;
28459;SDS011;32528;45.712;9.192;2022-07-23T08:24:24;13.05;;;3.13;;
28459;SDS011;32528;45.712;9.192;2022-07-23T08:26:26;19.02;;;3.40;;
28459;SDS011;32528;45.712;9.192;2022-07-23T08:28:26;9.15;;;2.58;;
28459;SDS011;32528;45.712;9.192;2022-07-23T08:30:27;6.05;;;3.08;;
28459;SDS011;32528;45.712;9.192;2022-07-23T08:32:29;17.35;;;3.55;;
28459;SDS011;32528;45.712;9.192;2022-07-23T08:34:30;7.25;;;3.20;;
28459;SDS011;32528;45.712;9.192;2022-07-23T08:36:31;9.52;;;3.70;;
28459;SDS011;32528;45.712;9.192;2022-07-23T08:38:34;9.98;;;3.05;;
28459;SDS011;32528;45.712;9.192;2022-07-23T08:40:36;8.02;;;3.58;;
28459;SDS011;32528;45.712;9.192;2022-07-23T08:42:39;11.18;;;3.70;;
28459;SDS011;32528;45.712;9.192;2022-07-23T08:44:44;6.88;;;3.22;;
28459;SDS011;32528;45.712;9.192;2022-07-23T08:46:46;7.10;;;3.75;;
28459;SDS011;32528;45.712;9.192;2022-07-23T08:48:48;8.48;;;3.65;;
28459;SDS011;32528;45.712;9.192;2022-07-23T08:50:51;11.35;;;3.65;;
28459;SDS011;32528;45.712;9.192;2022-07-23T08:52:56;6.88;;;3.13;;
28459;SDS011;32528;45.712;9.192;2022-07-23T08:54:59;9.10;;;3.40;;
28459;SDS011;32528;45.712;9.192;2022-07-23T08:57:00;7.57;;;4.45;;
28459;SDS011;32528;45.712;9.192;2022-07-23T08:59:00;12.25;;;3.42;;
28459;SDS011;32528;45.712;9.192;2022-07-23T09:01:01;8.85;;;3.28;;
28459;SDS011;32528;45.712;9.192;2022-07-23T09:03:02;12.18;;;4.40;;
28459;SDS011;32528;45.712;9.192;2022-07-23T09:05:03;10.35;;;3.97;;
28459;SDS011;32528;45.712;9.192;2022-07-23T09:07:04;8.40;;;3.90;;
28459;SDS011;32528;45.712;9.192;2022-07-23T09:09:38;12.25;;;3.55;;
28459;SDS011;32528;45.712;9.192;2022-07-23T09:11:33;11.77;;;3.45;;
28459;SDS011;32528;45.712;9.192;2022-07-23T09:15:48;6.38;;;3.40;;
28459;SDS011;32528;45.712;9.192;2022-07-23T09:17:50;11.13;;;4.10;;
28459;SDS011;32528;45.712;9.192;2022-07-23T09:19:51;6.82;;;3.58;;
28459;SDS011;32528;45.712;9.192;2022-07-23T09:21:52;17.83;;;5.07;;
28459;SDS011;32528;45.712;9.192;2022-07-23T09:23:54;14.73;;;4.68;;
28459;SDS011;32528;45.712;9.192;2022-07-23T09:25:55;15.45;;;4.70;;
28459;SDS011;32528;45.712;9.192;2022-07-23T09:27:57;10.05;;;3.97;;
28459;SDS011;32528;45.712;9.192;2022-07-23T09:30:02;11.05;;;4.00;;
28459;SDS011;32528;45.712;9.192;2022-07-23T09:32:05;19.52;;;5.20;;
28459;SDS011;32528;45.712;9.192;2022-07-23T09:34:17;11.25;;;3.80;;
28459;SDS011;32528;45.712;9.192;2022-07-23T09:36:29;10.10;;;4.40;;
28459;SDS011;32528;45.712;9.192;2022-07-23T09:38:30;11.38;;;4.47;;
28459;SDS011;32528;45.712;9.192;2022-07-23T09:40:30;9.93;;;4.45;;
28459;SDS011;32528;45.712;9.192;2022-07-23T09:42:31;14.85;;;4.70;;
28459;SDS011;32528;45.712;9.192;2022-07-23T09:44:32;10.77;;;5.20;;
28459;SDS011;32528;45.712;9.192;2022-07-23T09:46:43;15.35;;;4.40;;
28459;SDS011;32528;45.712;9.192;2022-07-23T09:48:49;17.42;;;4.65;;
28459;SDS011;32528;45.712;9.192;2022-07-23T09:50:51;14.88;;;4.95;;
28459;SDS011;32528;45.712;9.192;2022-07-23T09:52:52;11.40;;;5.28;;
28459;SDS011;32528;45.712;9.192;2022-07-23T09:54:57;12.77;;;5.13;;
28459;SDS011;32528;45.712;9.192;2022-07-23T09:57:12;12.35;;;5.32;;
28459;SDS011;32528;45.712;9.192;2022-07-23T09:59:17;15.80;;;5.43;;
28459;SDS011;32528;45.712;9.192;2022-07-23T10:01:18;21.48;;;5.47;;
28459;SDS011;32528;45.712;9.192;2022-07-23T10:03:21;16.50;;;3.78;;
28459;SDS011;32528;45.712;9.192;2022-07-23T10:05:50;10.80;;;4.60;;
28459;SDS011;32528;45.712;9.192;2022-07-23T10:08:04;11.25;;;3.72;;
28459;SDS011;32528;45.712;9.192;2022-07-23T10:10:29;8.35;;;3.70;;
28459;SDS011;32528;45.712;9.192;2022-07-23T10:13:04;10.43;;;3.50;;
28459;SDS011;32528;45.712;9.192;2022-07-23T10:15:11;7.82;;;4.00;;
28459;SDS011;32528;45.712;9.192;2022-07-23T10:17:12;11.00;;;4.45;;
28459;SDS011;32528;45.712;9.192;2022-07-23T10:19:14;12.20;;;4.28;;
28459;SDS011;32528;45.712;9.192;2022-07-23T10:21:20;11.98;;;4.72;;
28459;SDS011;32528;45.712;9.192;2022-07-23T10:28:29;15.35;;;4.00;;
28459;SDS011;32528;45.712;9.192;2022-07-23T10:35:42;10.18;;;5.40;;
28459;SDS011;32528;45.712;9.192;2022-07-23T10:37:50;17.85;;;5.13;;
28459;SDS011;32528;45.712;9.192;2022-07-23T10:42:15;12.75;;;5.25;;
28459;SDS011;32528;45.712;9.192;2022-07-23T10:44:18;10.80;;;4.68;;
28459;SDS011;32528;45.712;9.192;2022-07-23T10:48:46;7.80;;;3.90;;
28459;SDS011;32528;45.712;9.192;2022-07-23T10:51:26;13.20;;;4.20;;
28459;SDS011;32528;45.712;9.192;2022-07-23T10:53:29;9.82;;;4.15;;
28459;SDS011;32528;45.712;9.192;2022-07-23T10:55:51;10.13;;;4.13;;
28459;SDS011;32528;45.712;9.192;2022-07-23T10:57:52;13.43;;;5.00;;
28459;SDS011;32528;45.712;9.192;2022-07-23T11:04:47;9.98;;;4.72;;
28459;SDS011;32528;45.712;9.192;2022-07-23T11:09:23;8.52;;;4.25;;
28459;SDS011;32528;45.712;9.192;2022-07-23T11:11:26;11.88;;;5.30;;
28459;SDS011;32528;45.712;9.192;2022-07-23T11:13:46;15.55;;;5.45;;
28459;SDS011;32528;45.712;9.192;2022-07-23T11:18:01;10.98;;;5.25;;
28459;SDS011;32528;45.712;9.192;2022-07-23T11:22:10;15.13;;;5.18;;
28459;SDS011;32528;45.712;9.192;2022-07-23T11:24:48;15.90;;;5.38;;
28459;SDS011;32528;45.712;9.192;2022-07-23T11:26:57;15.73;;;5.35;;
28459;SDS011;32528;45.712;9.192;2022-07-23T11:31:34;12.45;;;5.53;;
28459;SDS011;32528;45.712;9.192;2022-07-23T11:33:37;11.20;;;5.72;;
28459;SDS011;32528;45.712;9.192;2022-07-23T11:35:39;15.93;;;4.97;;
28459;SDS011;32528;45.712;9.192;2022-07-23T11:37:42;21.13;;;5.30;;
28459;SDS011;32528;45.712;9.192;2022-07-23T11:39:45;14.38;;;5.38;;
28459;SDS011;32528;45.712;9.192;2022-07-23T11:41:47;10.68;;;5.10;;
28459;SDS011;32528;45.712;9.192;2022-07-23T11:43:48;8.38;;;5.03;;
28459;SDS011;32528;45.712;9.192;2022-07-23T11:45:50;9.07;;;5.07;;
28459;SDS011;32528;45.712;9.192;2022-07-23T11:47:58;17.85;;;6.53;;
28459;SDS011;32528;45.712;9.192;2022-07-23T11:50:04;13.75;;;5.75;;
28459;SDS011;32528;45.712;9.192;2022-07-23T11:52:11;19.23;;;5.20;;
28459;SDS011;32528;45.712;9.192;2022-07-23T11:54:16;15.32;;;4.82;;
28459;SDS011;32528;45.712;9.192;2022-07-23T11:56:17;19.27;;;5.57;;
28459;SDS011;32528;45.712;9.192;2022-07-23T11:58:19;10.18;;;5.70;;
28459;SDS011;32528;45.712;9.192;2022-07-23T12:00:23;15.07;;;5.75;;
28459;SDS011;32528;45.712;9.192;2022-07-23T12:02:27;16.27;;;6.20;;
28459;SDS011;32528;45.712;9.192;2022-07-23T12:04:38;10.93;;;6.22;;
28459;SDS011;32528;45.712;9.192;2022-07-23T12:06:40;14.07;;;5.35;;
28459;SDS011;32528;45.712;9.192;2022-07-23T12:08:41;11.77;;;5.32;;
28459;SDS011;32528;45.712;9.192;2022-07-23T12:10:44;10.55;;;5.13;;
28459;SDS011;32528;45.712;9.192;2022-07-23T12:12:56;9.05;;;4.97;;
28459;SDS011;32528;45.712;9.192;2022-07-23T12:14:58;12.07;;;5.43;;
28459;SDS011;32528;45.712;9.192;2022-07-23T12:17:09;13.00;;;5.28;;
28459;SDS011;32528;45.712;9.192;2022-07-23T12:19:12;8.45;;;5.38;;
28459;SDS011;32528;45.712;9.192;2022-07-23T12:21:14;10.73;;;6.05;;
28459;SDS011;32528;45.712;9.192;2022-07-23T12:23:17;10.40;;;5.35;;
28459;SDS011;32528;45.712;9.192;2022-07-23T12:25:20;9.73;;;5.43;;
28459;SDS011;32528;45.712;9.192;2022-07-23T12:27:23;10.65;;;5.07;;
28459;SDS011;32528;45.712;9.192;2022-07-23T12:29:33;10.50;;;4.50;;
28459;SDS011;32528;45.712;9.192;2022-07-23T12:31:38;10.20;;;6.85;;
28459;SDS011;32528;45.712;9.192;2022-07-23T12:33:39;13.68;;;5.80;;
28459;SDS011;32528;45.712;9.192;2022-07-23T12:35:42;11.50;;;4.93;;
28459;SDS011;32528;45.712;9.192;2022-07-23T12:37:45;9.57;;;5.20;;
28459;SDS011;32528;45.712;9.192;2022-07-23T12:39:48;11.48;;;5.25;;
28459;SDS011;32528;45.712;9.192;2022-07-23T12:41:50;10.18;;;4.72;;
28459;SDS011;32528;45.712;9.192;2022-07-23T12:43:52;8.77;;;4.95;;
28459;SDS011;32528;45.712;9.192;2022-07-23T12:46:04;19.50;;;7.00;;